sensor_id;sensor_type;location;lat;lon;timestamp;P1;durP1;ratioP1;P2;durP2;ratioP2
36575;SDS011;45700;50.930;5.168;2023-02-28T00:02:03;10.57;;;3.83;;
36575;SDS011;45700;50.930;5.168;2023-02-28T00:06:05;6.63;;;3.63;;
36575;SDS011;45700;50.930;5.168;2023-02-28T00:10:07;6.38;;;2.72;;
36575;SDS011;45700;50.930;5.168;2023-02-28T00:14:10;7.97;;;3.17;;
36575;SDS011;45700;50.930;5.168;2023-02-28T00:18:11;16.25;;;4.15;;
36575;SDS011;45700;50.930;5.168;2023-02-28T00:22:13;9.85;;;3.17;;
36575;SDS011;45700;50.930;5.168;2023-02-28T00:26:14;6.20;;;3.67;;
36575;SDS011;45700;50.930;5.168;2023-02-28T00:30:17;7.60;;;3.65;;
36575;SDS011;45700;50.930;5.168;2023-02-28T00:34:18;5.57;;;2.97;;
36575;SDS011;45700;50.930;5.168;2023-02-28T00:38:19;6.90;;;3.90;;
36575;SDS011;45700;50.930;5.168;2023-02-28T00:42:20;11.68;;;3.65;;
36575;SDS011;45700;50.930;5.168;2023-02-28T00:46:21;8.73;;;3.97;;
36575;SDS011;45700;50.930;5.168;2023-02-28T00:50:22;6.57;;;3.20;;
36575;SDS011;45700;50.930;5.168;2023-02-28T00:54:23;9.20;;;3.35;;
36575;SDS011;45700;50.930;5.168;2023-02-28T00:58:24;10.93;;;3.55;;
36575;SDS011;45700;50.930;5.168;2023-02-28T01:02:25;7.22;;;3.53;;
36575;SDS011;45700;50.930;5.168;2023-02-28T01:06:26;4.97;;;3.05;;
36575;SDS011;45700;50.930;5.168;2023-02-28T01:10:27;11.60;;;3.90;;
36575;SDS011;45700;50.930;5.168;2023-02-28T01:14:31;6.63;;;3.42;;
36575;SDS011;45700;50.930;5.168;2023-02-28T01:18:32;8.55;;;3.20;;
36575;SDS011;45700;50.930;5.168;2023-02-28T01:22:34;10.05;;;3.65;;
36575;SDS011;45700;50.930;5.168;2023-02-28T01:26:35;6.88;;;4.07;;
36575;SDS011;45700;50.930;5.168;2023-02-28T01:30:36;10.68;;;3.10;;
36575;SDS011;45700;50.930;5.168;2023-02-28T01:34:37;11.18;;;3.63;;
36575;SDS011;45700;50.930;5.168;2023-02-28T01:38:38;7.35;;;3.85;;
36575;SDS011;45700;50.930;5.168;2023-02-28T01:42:39;8.60;;;3.65;;
36575;SDS011;45700;50.930;5.168;2023-02-28T01:46:40;9.02;;;3.70;;
36575;SDS011;45700;50.930;5.168;2023-02-28T01:50:43;9.95;;;4.43;;
36575;SDS011;45700;50.930;5.168;2023-02-28T01:54:45;6.47;;;3.65;;
36575;SDS011;45700;50.930;5.168;2023-02-28T01:58:51;7.53;;;3.67;;
36575;SDS011;45700;50.930;5.168;2023-02-28T02:02:54;8.75;;;4.20;;
36575;SDS011;45700;50.930;5.168;2023-02-28T02:06:56;11.02;;;3.67;;
36575;SDS011;45700;50.930;5.168;2023-02-28T02:11:00;6.13;;;3.65;;
36575;SDS011;45700;50.930;5.168;2023-02-28T02:15:10;7.53;;;3.47;;
36575;SDS011;45700;50.930;5.168;2023-02-28T02:36:02;7.78;;;3.55;;
36575;SDS011;45700;50.930;5.168;2023-02-28T02:40:09;8.00;;;4.22;;
36575;SDS011;45700;50.930;5.168;2023-02-28T02:44:21;7.63;;;3.47;;
36575;SDS011;45700;50.930;5.168;2023-02-28T02:48:25;9.55;;;4.22;;
36575;SDS011;45700;50.930;5.168;2023-02-28T02:52:32;12.18;;;5.05;;
36575;SDS011;45700;50.930;5.168;2023-02-28T02:56:35;7.88;;;3.90;;
36575;SDS011;45700;50.930;5.168;2023-02-28T03:00:41;9.55;;;4.03;;
36575;SDS011;45700;50.930;5.168;2023-02-28T03:04:51;8.15;;;3.90;;
36575;SDS011;45700;50.930;5.168;2023-02-28T03:08:53;13.90;;;3.78;;
36575;SDS011;45700;50.930;5.168;2023-02-28T03:12:58;11.02;;;4.50;;
36575;SDS011;45700;50.930;5.168;2023-02-28T03:25:20;6.65;;;4.20;;
36575;SDS011;45700;50.930;5.168;2023-02-28T03:33:46;15.73;;;4.53;;
36575;SDS011;45700;50.930;5.168;2023-02-28T03:37:56;9.90;;;4.70;;
36575;SDS011;45700;50.930;5.168;2023-02-28T03:42:01;7.35;;;3.75;;
36575;SDS011;45700;50.930;5.168;2023-02-28T03:46:05;12.75;;;4.95;;
36575;SDS011;45700;50.930;5.168;2023-02-28T03:50:08;13.23;;;4.45;;
36575;SDS011;45700;50.930;5.168;2023-02-28T03:54:12;12.15;;;5.07;;
36575;SDS011;45700;50.930;5.168;2023-02-28T03:58:29;8.30;;;4.13;;
36575;SDS011;45700;50.930;5.168;2023-02-28T04:02:31;8.68;;;4.57;;
36575;SDS011;45700;50.930;5.168;2023-02-28T04:06:33;10.27;;;4.70;;
36575;SDS011;45700;50.930;5.168;2023-02-28T04:10:34;9.65;;;4.70;;
36575;SDS011;45700;50.930;5.168;2023-02-28T04:14:35;11.50;;;5.28;;
36575;SDS011;45700;50.930;5.168;2023-02-28T04:18:36;9.05;;;4.72;;
36575;SDS011;45700;50.930;5.168;2023-02-28T04:22:37;7.38;;;4.03;;
36575;SDS011;45700;50.930;5.168;2023-02-28T04:26:38;14.25;;;5.47;;
36575;SDS011;45700;50.930;5.168;2023-02-28T04:30:39;11.38;;;4.88;;
36575;SDS011;45700;50.930;5.168;2023-02-28T04:34:40;12.55;;;5.13;;
36575;SDS011;45700;50.930;5.168;2023-02-28T04:38:41;9.15;;;4.50;;
36575;SDS011;45700;50.930;5.168;2023-02-28T04:42:42;10.30;;;5.57;;
36575;SDS011;45700;50.930;5.168;2023-02-28T04:46:43;10.57;;;5.18;;
36575;SDS011;45700;50.930;5.168;2023-02-28T04:50:44;10.48;;;4.75;;
36575;SDS011;45700;50.930;5.168;2023-02-28T04:54:45;11.55;;;5.65;;
36575;SDS011;45700;50.930;5.168;2023-02-28T04:58:46;9.70;;;5.22;;
36575;SDS011;45700;50.930;5.168;2023-02-28T05:02:48;11.10;;;4.40;;
36575;SDS011;45700;50.930;5.168;2023-02-28T05:06:49;13.65;;;5.53;;
36575;SDS011;45700;50.930;5.168;2023-02-28T05:10:50;9.57;;;4.60;;
36575;SDS011;45700;50.930;5.168;2023-02-28T05:14:51;11.95;;;4.95;;
36575;SDS011;45700;50.930;5.168;2023-02-28T05:18:52;12.00;;;5.03;;
36575;SDS011;45700;50.930;5.168;2023-02-28T05:22:53;12.90;;;6.38;;
36575;SDS011;45700;50.930;5.168;2023-02-28T05:26:54;13.40;;;5.00;;
36575;SDS011;45700;50.930;5.168;2023-02-28T05:30:55;9.73;;;4.38;;
36575;SDS011;45700;50.930;5.168;2023-02-28T05:34:56;12.80;;;4.60;;
36575;SDS011;45700;50.930;5.168;2023-02-28T05:38:57;9.43;;;4.60;;
36575;SDS011;45700;50.930;5.168;2023-02-28T05:42:58;17.83;;;6.07;;
36575;SDS011;45700;50.930;5.168;2023-02-28T05:46:59;11.52;;;5.38;;
36575;SDS011;45700;50.930;5.168;2023-02-28T05:51:01;12.85;;;5.38;;
36575;SDS011;45700;50.930;5.168;2023-02-28T05:55:02;9.55;;;5.30;;
36575;SDS011;45700;50.930;5.168;2023-02-28T05:59:04;9.90;;;5.05;;
36575;SDS011;45700;50.930;5.168;2023-02-28T06:03:05;17.58;;;5.22;;
36575;SDS011;45700;50.930;5.168;2023-02-28T06:07:06;13.80;;;6.18;;
36575;SDS011;45700;50.930;5.168;2023-02-28T06:11:07;12.75;;;6.05;;
36575;SDS011;45700;50.930;5.168;2023-02-28T06:15:14;12.55;;;5.80;;
36575;SDS011;45700;50.930;5.168;2023-02-28T06:19:15;8.00;;;4.95;;
36575;SDS011;45700;50.930;5.168;2023-02-28T06:23:16;11.88;;;5.10;;
36575;SDS011;45700;50.930;5.168;2023-02-28T06:27:17;11.95;;;5.72;;
36575;SDS011;45700;50.930;5.168;2023-02-28T06:31:19;13.68;;;5.53;;
36575;SDS011;45700;50.930;5.168;2023-02-28T06:35:21;14.50;;;5.18;;
36575;SDS011;45700;50.930;5.168;2023-02-28T06:39:23;8.15;;;5.03;;
36575;SDS011;45700;50.930;5.168;2023-02-28T06:43:24;15.27;;;5.78;;
36575;SDS011;45700;50.930;5.168;2023-02-28T06:47:25;14.18;;;4.97;;
36575;SDS011;45700;50.930;5.168;2023-02-28T06:51:26;9.63;;;5.28;;
36575;SDS011;45700;50.930;5.168;2023-02-28T06:55:27;11.82;;;5.38;;
36575;SDS011;45700;50.930;5.168;2023-02-28T06:59:28;15.13;;;5.35;;
36575;SDS011;45700;50.930;5.168;2023-02-28T07:03:29;7.57;;;4.57;;
36575;SDS011;45700;50.930;5.168;2023-02-28T07:07:30;16.85;;;4.93;;
36575;SDS011;45700;50.930;5.168;2023-02-28T07:11:32;11.35;;;5.43;;
36575;SDS011;45700;50.930;5.168;2023-02-28T07:15:33;11.02;;;5.03;;
36575;SDS011;45700;50.930;5.168;2023-02-28T07:19:34;12.57;;;4.95;;
36575;SDS011;45700;50.930;5.168;2023-02-28T07:23:35;12.48;;;4.82;;
36575;SDS011;45700;50.930;5.168;2023-02-28T07:27:41;9.25;;;4.32;;
36575;SDS011;45700;50.930;5.168;2023-02-28T07:31:42;12.35;;;5.22;;
36575;SDS011;45700;50.930;5.168;2023-02-28T07:35:43;9.45;;;3.80;;
36575;SDS011;45700;50.930;5.168;2023-02-28T07:39:44;9.32;;;4.40;;
36575;SDS011;45700;50.930;5.168;2023-02-28T07:43:46;9.82;;;4.40;;
36575;SDS011;45700;50.930;5.168;2023-02-28T07:47:47;8.70;;;4.45;;
36575;SDS011;45700;50.930;5.168;2023-02-28T07:51:48;12.90;;;4.53;;
36575;SDS011;45700;50.930;5.168;2023-02-28T07:55:49;9.25;;;4.45;;
36575;SDS011;45700;50.930;5.168;2023-02-28T07:59:50;10.68;;;3.92;;
36575;SDS011;45700;50.930;5.168;2023-02-28T08:03:51;10.70;;;4.70;;
36575;SDS011;45700;50.930;5.168;2023-02-28T08:07:53;8.57;;;4.03;;
36575;SDS011;45700;50.930;5.168;2023-02-28T08:11:54;7.15;;;3.65;;
36575;SDS011;45700;50.930;5.168;2023-02-28T08:15:55;7.47;;;3.83;;
36575;SDS011;45700;50.930;5.168;2023-02-28T08:19:57;7.20;;;3.50;;
36575;SDS011;45700;50.930;5.168;2023-02-28T08:23:58;7.57;;;3.78;;
36575;SDS011;45700;50.930;5.168;2023-02-28T08:27:59;11.90;;;3.75;;
36575;SDS011;45700;50.930;5.168;2023-02-28T08:32:00;5.45;;;2.85;;
36575;SDS011;45700;50.930;5.168;2023-02-28T08:36:01;8.73;;;3.30;;
36575;SDS011;45700;50.930;5.168;2023-02-28T08:40:02;6.68;;;3.35;;
36575;SDS011;45700;50.930;5.168;2023-02-28T08:44:04;7.07;;;3.17;;
36575;SDS011;45700;50.930;5.168;2023-02-28T08:48:05;6.90;;;2.83;;
36575;SDS011;45700;50.930;5.168;2023-02-28T08:52:06;7.18;;;3.28;;
36575;SDS011;45700;50.930;5.168;2023-02-28T08:56:12;10.55;;;3.15;;
36575;SDS011;45700;50.930;5.168;2023-02-28T09:00:13;5.57;;;3.30;;
36575;SDS011;45700;50.930;5.168;2023-02-28T09:04:14;6.15;;;3.15;;
36575;SDS011;45700;50.930;5.168;2023-02-28T09:08:15;7.80;;;2.90;;
36575;SDS011;45700;50.930;5.168;2023-02-28T09:12:16;6.05;;;3.35;;
36575;SDS011;45700;50.930;5.168;2023-02-28T09:16:17;7.72;;;2.70;;
36575;SDS011;45700;50.930;5.168;2023-02-28T09:20:18;8.35;;;2.95;;
36575;SDS011;45700;50.930;5.168;2023-02-28T09:24:19;6.50;;;2.50;;
36575;SDS011;45700;50.930;5.168;2023-02-28T09:28:21;4.18;;;2.60;;
36575;SDS011;45700;50.930;5.168;2023-02-28T09:32:22;5.55;;;2.70;;
36575;SDS011;45700;50.930;5.168;2023-02-28T09:36:24;8.38;;;2.88;;
36575;SDS011;45700;50.930;5.168;2023-02-28T09:40:25;5.30;;;2.40;;
36575;SDS011;45700;50.930;5.168;2023-02-28T09:44:28;6.03;;;2.30;;
36575;SDS011;45700;50.930;5.168;2023-02-28T09:48:35;5.82;;;2.28;;
36575;SDS011;45700;50.930;5.168;2023-02-28T09:52:37;6.43;;;2.17;;
36575;SDS011;45700;50.930;5.168;2023-02-28T09:56:39;3.03;;;1.80;;
36575;SDS011;45700;50.930;5.168;2023-02-28T10:00:41;2.53;;;1.45;;
36575;SDS011;45700;50.930;5.168;2023-02-28T10:04:47;3.60;;;1.65;;
36575;SDS011;45700;50.930;5.168;2023-02-28T10:09:08;3.05;;;1.73;;
36575;SDS011;45700;50.930;5.168;2023-02-28T10:13:19;2.15;;;1.30;;
36575;SDS011;45700;50.930;5.168;2023-02-28T10:17:26;6.00;;;1.60;;
36575;SDS011;45700;50.930;5.168;2023-02-28T10:21:35;2.72;;;1.20;;
36575;SDS011;45700;50.930;5.168;2023-02-28T10:25:37;3.85;;;1.73;;
36575;SDS011;45700;50.930;5.168;2023-02-28T10:29:38;2.78;;;1.48;;
36575;SDS011;45700;50.930;5.168;2023-02-28T10:33:41;1.75;;;1.23;;
36575;SDS011;45700;50.930;5.168;2023-02-28T10:37:42;2.00;;;1.40;;
36575;SDS011;45700;50.930;5.168;2023-02-28T10:41:43;4.03;;;2.03;;
36575;SDS011;45700;50.930;5.168;2023-02-28T10:46:01;4.57;;;1.63;;
36575;SDS011;45700;50.930;5.168;2023-02-28T10:50:03;3.28;;;1.42;;
36575;SDS011;45700;50.930;5.168;2023-02-28T10:54:05;2.35;;;1.13;;
36575;SDS011;45700;50.930;5.168;2023-02-28T10:58:22;3.65;;;1.20;;
36575;SDS011;45700;50.930;5.168;2023-02-28T11:02:35;2.20;;;1.33;;
36575;SDS011;45700;50.930;5.168;2023-02-28T11:10:44;2.65;;;1.45;;
36575;SDS011;45700;50.930;5.168;2023-02-28T11:14:47;1.35;;;1.10;;
36575;SDS011;45700;50.930;5.168;2023-02-28T11:18:55;2.50;;;1.30;;
36575;SDS011;45700;50.930;5.168;2023-02-28T11:22:57;2.53;;;1.55;;
36575;SDS011;45700;50.930;5.168;2023-02-28T11:26:59;7.70;;;1.45;;
36575;SDS011;45700;50.930;5.168;2023-02-28T11:39:19;2.85;;;1.75;;
36575;SDS011;45700;50.930;5.168;2023-02-28T11:51:48;4.25;;;2.60;;
36575;SDS011;45700;50.930;5.168;2023-02-28T11:55:59;5.78;;;1.13;;
36575;SDS011;45700;50.930;5.168;2023-02-28T12:20:47;1.48;;;1.17;;
36575;SDS011;45700;50.930;5.168;2023-02-28T12:24:53;2.03;;;1.23;;
36575;SDS011;45700;50.930;5.168;2023-02-28T12:29:04;2.67;;;1.58;;
36575;SDS011;45700;50.930;5.168;2023-02-28T12:33:09;2.55;;;1.85;;
36575;SDS011;45700;50.930;5.168;2023-02-28T12:37:17;2.20;;;1.52;;
36575;SDS011;45700;50.930;5.168;2023-02-28T12:41:19;2.20;;;1.40;;
36575;SDS011;45700;50.930;5.168;2023-02-28T12:45:24;6.47;;;1.75;;
36575;SDS011;45700;50.930;5.168;2023-02-28T12:49:27;2.83;;;1.80;;
36575;SDS011;45700;50.930;5.168;2023-02-28T13:02:24;4.75;;;1.50;;
36575;SDS011;45700;50.930;5.168;2023-02-28T13:06:39;3.95;;;1.63;;
36575;SDS011;45700;50.930;5.168;2023-02-28T13:10:44;2.83;;;1.42;;
36575;SDS011;45700;50.930;5.168;2023-02-28T13:14:46;5.72;;;2.17;;
36575;SDS011;45700;50.930;5.168;2023-02-28T13:18:47;3.55;;;1.80;;
36575;SDS011;45700;50.930;5.168;2023-02-28T13:22:50;4.70;;;1.80;;
36575;SDS011;45700;50.930;5.168;2023-02-28T13:43:00;2.63;;;1.50;;
36575;SDS011;45700;50.930;5.168;2023-02-28T13:51:37;4.38;;;2.30;;
36575;SDS011;45700;50.930;5.168;2023-02-28T14:07:38;2.90;;;1.77;;
36575;SDS011;45700;50.930;5.168;2023-02-28T14:11:42;2.35;;;1.70;;
36575;SDS011;45700;50.930;5.168;2023-02-28T14:15:55;3.60;;;1.98;;
36575;SDS011;45700;50.930;5.168;2023-02-28T14:19:56;7.18;;;2.00;;
36575;SDS011;45700;50.930;5.168;2023-02-28T14:28:19;6.40;;;1.90;;
36575;SDS011;45700;50.930;5.168;2023-02-28T14:36:46;2.58;;;1.52;;
36575;SDS011;45700;50.930;5.168;2023-02-28T14:40:49;3.47;;;1.92;;
36575;SDS011;45700;50.930;5.168;2023-02-28T14:44:54;4.65;;;1.75;;
36575;SDS011;45700;50.930;5.168;2023-02-28T14:48:59;4.90;;;2.38;;
36575;SDS011;45700;50.930;5.168;2023-02-28T14:53:00;2.38;;;1.90;;
36575;SDS011;45700;50.930;5.168;2023-02-28T14:57:02;3.20;;;1.85;;
36575;SDS011;45700;50.930;5.168;2023-02-28T15:01:03;3.78;;;1.80;;
36575;SDS011;45700;50.930;5.168;2023-02-28T15:09:18;3.60;;;2.20;;
36575;SDS011;45700;50.930;5.168;2023-02-28T15:13:20;3.80;;;2.38;;
36575;SDS011;45700;50.930;5.168;2023-02-28T15:17:22;5.05;;;2.35;;
36575;SDS011;45700;50.930;5.168;2023-02-28T15:21:43;3.78;;;1.85;;
36575;SDS011;45700;50.930;5.168;2023-02-28T15:25:44;2.60;;;1.80;;
36575;SDS011;45700;50.930;5.168;2023-02-28T15:29:46;5.90;;;1.58;;
36575;SDS011;45700;50.930;5.168;2023-02-28T15:33:55;2.50;;;1.67;;
36575;SDS011;45700;50.930;5.168;2023-02-28T15:38:18;4.28;;;2.10;;
36575;SDS011;45700;50.930;5.168;2023-02-28T15:42:18;6.18;;;1.90;;
36575;SDS011;45700;50.930;5.168;2023-02-28T15:46:20;4.20;;;1.90;;
36575;SDS011;45700;50.930;5.168;2023-02-28T15:50:21;4.60;;;2.15;;
36575;SDS011;45700;50.930;5.168;2023-02-28T15:54:23;2.63;;;1.85;;
36575;SDS011;45700;50.930;5.168;2023-02-28T15:58:27;3.35;;;2.00;;
36575;SDS011;45700;50.930;5.168;2023-02-28T16:02:35;5.93;;;2.00;;
36575;SDS011;45700;50.930;5.168;2023-02-28T16:06:38;2.40;;;1.98;;
36575;SDS011;45700;50.930;5.168;2023-02-28T16:10:40;2.20;;;1.67;;
36575;SDS011;45700;50.930;5.168;2023-02-28T16:14:41;6.45;;;2.75;;
36575;SDS011;45700;50.930;5.168;2023-02-28T16:18:42;4.43;;;1.90;;
36575;SDS011;45700;50.930;5.168;2023-02-28T16:22:44;4.70;;;1.83;;
36575;SDS011;45700;50.930;5.168;2023-02-28T16:26:46;6.18;;;2.13;;
36575;SDS011;45700;50.930;5.168;2023-02-28T16:30:48;3.28;;;1.80;;
36575;SDS011;45700;50.930;5.168;2023-02-28T16:34:51;3.65;;;1.80;;
36575;SDS011;45700;50.930;5.168;2023-02-28T16:38:53;3.38;;;2.20;;
36575;SDS011;45700;50.930;5.168;2023-02-28T16:42:57;3.85;;;1.98;;
36575;SDS011;45700;50.930;5.168;2023-02-28T16:46:59;6.10;;;2.70;;
36575;SDS011;45700;50.930;5.168;2023-02-28T16:51:00;4.10;;;2.20;;
36575;SDS011;45700;50.930;5.168;2023-02-28T16:55:04;3.80;;;2.40;;
36575;SDS011;45700;50.930;5.168;2023-02-28T16:59:05;5.03;;;2.72;;
36575;SDS011;45700;50.930;5.168;2023-02-28T17:03:09;5.38;;;1.92;;
36575;SDS011;45700;50.930;5.168;2023-02-28T17:07:15;4.90;;;2.67;;
36575;SDS011;45700;50.930;5.168;2023-02-28T17:11:16;5.07;;;2.17;;
36575;SDS011;45700;50.930;5.168;2023-02-28T17:15:18;4.70;;;2.20;;
36575;SDS011;45700;50.930;5.168;2023-02-28T17:19:20;2.55;;;1.85;;
36575;SDS011;45700;50.930;5.168;2023-02-28T17:23:21;3.35;;;1.77;;
36575;SDS011;45700;50.930;5.168;2023-02-28T17:27:22;5.05;;;2.60;;
36575;SDS011;45700;50.930;5.168;2023-02-28T17:31:26;3.10;;;2.20;;
36575;SDS011;45700;50.930;5.168;2023-02-28T17:35:28;3.95;;;2.20;;
36575;SDS011;45700;50.930;5.168;2023-02-28T17:39:29;4.13;;;2.22;;
36575;SDS011;45700;50.930;5.168;2023-02-28T17:43:30;3.35;;;1.88;;
36575;SDS011;45700;50.930;5.168;2023-02-28T17:47:31;3.45;;;2.05;;
36575;SDS011;45700;50.930;5.168;2023-02-28T17:51:32;6.00;;;1.95;;
36575;SDS011;45700;50.930;5.168;2023-02-28T17:55:33;3.92;;;1.85;;
36575;SDS011;45700;50.930;5.168;2023-02-28T17:59:34;3.85;;;2.40;;
36575;SDS011;45700;50.930;5.168;2023-02-28T18:03:35;4.50;;;1.90;;
36575;SDS011;45700;50.930;5.168;2023-02-28T18:07:37;8.25;;;3.00;;
36575;SDS011;45700;50.930;5.168;2023-02-28T18:11:38;5.10;;;2.88;;
36575;SDS011;45700;50.930;5.168;2023-02-28T18:15:45;3.25;;;2.33;;
36575;SDS011;45700;50.930;5.168;2023-02-28T18:19:47;3.80;;;2.15;;
36575;SDS011;45700;50.930;5.168;2023-02-28T18:23:48;4.53;;;2.10;;
36575;SDS011;45700;50.930;5.168;2023-02-28T18:27:51;7.10;;;2.80;;
36575;SDS011;45700;50.930;5.168;2023-02-28T18:31:58;7.78;;;2.72;;
36575;SDS011;45700;50.930;5.168;2023-02-28T18:36:01;4.85;;;2.67;;
36575;SDS011;45700;50.930;5.168;2023-02-28T18:40:02;5.72;;;2.95;;
36575;SDS011;45700;50.930;5.168;2023-02-28T18:44:03;9.43;;;3.65;;
36575;SDS011;45700;50.930;5.168;2023-02-28T18:48:04;10.32;;;3.15;;
36575;SDS011;45700;50.930;5.168;2023-02-28T18:52:05;9.23;;;3.13;;
36575;SDS011;45700;50.930;5.168;2023-02-28T18:56:07;5.80;;;3.38;;
36575;SDS011;45700;50.930;5.168;2023-02-28T19:00:08;10.60;;;3.25;;
36575;SDS011;45700;50.930;5.168;2023-02-28T19:04:11;7.30;;;4.03;;
36575;SDS011;45700;50.930;5.168;2023-02-28T19:08:12;12.82;;;3.88;;
36575;SDS011;45700;50.930;5.168;2023-02-28T19:12:13;5.10;;;2.67;;
36575;SDS011;45700;50.930;5.168;2023-02-28T19:16:17;8.18;;;3.63;;
36575;SDS011;45700;50.930;5.168;2023-02-28T19:20:18;7.57;;;3.50;;
36575;SDS011;45700;50.930;5.168;2023-02-28T19:24:19;11.90;;;4.03;;
36575;SDS011;45700;50.930;5.168;2023-02-28T19:28:20;11.50;;;3.67;;
36575;SDS011;45700;50.930;5.168;2023-02-28T19:32:21;6.03;;;4.18;;
36575;SDS011;45700;50.930;5.168;2023-02-28T19:36:22;10.18;;;4.38;;
36575;SDS011;45700;50.930;5.168;2023-02-28T19:40:23;5.88;;;3.40;;
36575;SDS011;45700;50.930;5.168;2023-02-28T19:44:24;9.32;;;3.75;;
36575;SDS011;45700;50.930;5.168;2023-02-28T19:48:25;5.95;;;3.47;;
36575;SDS011;45700;50.930;5.168;2023-02-28T19:52:27;6.32;;;4.07;;
36575;SDS011;45700;50.930;5.168;2023-02-28T19:56:28;7.45;;;3.97;;
36575;SDS011;45700;50.930;5.168;2023-02-28T20:00:29;7.55;;;3.45;;
36575;SDS011;45700;50.930;5.168;2023-02-28T20:04:30;7.32;;;4.53;;
36575;SDS011;45700;50.930;5.168;2023-02-28T20:08:31;6.38;;;3.50;;
36575;SDS011;45700;50.930;5.168;2023-02-28T20:12:32;9.80;;;4.55;;
36575;SDS011;45700;50.930;5.168;2023-02-28T20:16:33;11.82;;;4.47;;
36575;SDS011;45700;50.930;5.168;2023-02-28T20:20:34;12.55;;;5.72;;
36575;SDS011;45700;50.930;5.168;2023-02-28T20:24:36;8.63;;;3.33;;
36575;SDS011;45700;50.930;5.168;2023-02-28T20:28:37;7.72;;;4.07;;
36575;SDS011;45700;50.930;5.168;2023-02-28T20:32:39;8.43;;;3.78;;
36575;SDS011;45700;50.930;5.168;2023-02-28T20:36:40;7.78;;;4.25;;
36575;SDS011;45700;50.930;5.168;2023-02-28T20:40:41;8.48;;;4.13;;
36575;SDS011;45700;50.930;5.168;2023-02-28T20:44:42;10.73;;;4.00;;
36575;SDS011;45700;50.930;5.168;2023-02-28T20:48:43;6.65;;;3.95;;
36575;SDS011;45700;50.930;5.168;2023-02-28T20:52:44;9.65;;;3.90;;
36575;SDS011;45700;50.930;5.168;2023-02-28T20:56:45;11.15;;;3.72;;
36575;SDS011;45700;50.930;5.168;2023-02-28T21:00:46;9.48;;;3.78;;
36575;SDS011;45700;50.930;5.168;2023-02-28T21:04:47;7.47;;;3.83;;
36575;SDS011;45700;50.930;5.168;2023-02-28T21:08:48;7.63;;;4.55;;
36575;SDS011;45700;50.930;5.168;2023-02-28T21:12:49;12.13;;;6.05;;
36575;SDS011;45700;50.930;5.168;2023-02-28T21:16:53;5.65;;;4.25;;
36575;SDS011;45700;50.930;5.168;2023-02-28T21:20:59;13.88;;;4.78;;
36575;SDS011;45700;50.930;5.168;2023-02-28T21:25:00;14.13;;;5.50;;
36575;SDS011;45700;50.930;5.168;2023-02-28T21:29:01;10.43;;;5.45;;
36575;SDS011;45700;50.930;5.168;2023-02-28T21:33:02;12.15;;;5.13;;
36575;SDS011;45700;50.930;5.168;2023-02-28T21:37:03;7.15;;;3.95;;
36575;SDS011;45700;50.930;5.168;2023-02-28T21:41:09;12.57;;;4.95;;
36575;SDS011;45700;50.930;5.168;2023-02-28T21:45:10;12.85;;;5.03;;
36575;SDS011;45700;50.930;5.168;2023-02-28T21:49:11;10.60;;;4.97;;
36575;SDS011;45700;50.930;5.168;2023-02-28T21:53:12;10.10;;;4.57;;
36575;SDS011;45700;50.930;5.168;2023-02-28T21:57:14;10.68;;;4.45;;
36575;SDS011;45700;50.930;5.168;2023-02-28T22:01:16;8.45;;;4.90;;
36575;SDS011;45700;50.930;5.168;2023-02-28T22:05:17;12.82;;;4.70;;
36575;SDS011;45700;50.930;5.168;2023-02-28T22:09:19;8.25;;;4.80;;
36575;SDS011;45700;50.930;5.168;2023-02-28T22:13:20;9.98;;;4.93;;
36575;SDS011;45700;50.930;5.168;2023-02-28T22:17:21;8.07;;;4.38;;
36575;SDS011;45700;50.930;5.168;2023-02-28T22:21:23;11.75;;;4.57;;
36575;SDS011;45700;50.930;5.168;2023-02-28T22:25:24;8.55;;;4.57;;
36575;SDS011;45700;50.930;5.168;2023-02-28T22:29:25;15.02;;;5.30;;
36575;SDS011;45700;50.930;5.168;2023-02-28T22:33:26;10.18;;;5.40;;
36575;SDS011;45700;50.930;5.168;2023-02-28T22:37:27;7.30;;;4.20;;
36575;SDS011;45700;50.930;5.168;2023-02-28T22:41:28;9.85;;;4.68;;
36575;SDS011;45700;50.930;5.168;2023-02-28T22:45:30;11.50;;;4.93;;
36575;SDS011;45700;50.930;5.168;2023-02-28T22:49:31;12.30;;;4.55;;
36575;SDS011;45700;50.930;5.168;2023-02-28T22:53:33;9.68;;;4.50;;
36575;SDS011;45700;50.930;5.168;2023-02-28T22:57:34;9.80;;;4.65;;
36575;SDS011;45700;50.930;5.168;2023-02-28T23:01:36;14.60;;;6.30;;
36575;SDS011;45700;50.930;5.168;2023-02-28T23:05:37;13.10;;;5.38;;
36575;SDS011;45700;50.930;5.168;2023-02-28T23:09:38;12.55;;;5.03;;
36575;SDS011;45700;50.930;5.168;2023-02-28T23:13:39;11.55;;;4.65;;
36575;SDS011;45700;50.930;5.168;2023-02-28T23:17:40;9.85;;;5.13;;
36575;SDS011;45700;50.930;5.168;2023-02-28T23:21:42;8.35;;;4.82;;
36575;SDS011;45700;50.930;5.168;2023-02-28T23:25:43;9.02;;;4.30;;
36575;SDS011;45700;50.930;5.168;2023-02-28T23:29:44;12.77;;;5.90;;
36575;SDS011;45700;50.930;5.168;2023-02-28T23:33:45;7.50;;;4.53;;
36575;SDS011;45700;50.930;5.168;2023-02-28T23:37:46;9.75;;;4.10;;
36575;SDS011;45700;50.930;5.168;2023-02-28T23:41:47;8.57;;;4.70;;
36575;SDS011;45700;50.930;5.168;2023-02-28T23:45:57;8.57;;;4.57;;
36575;SDS011;45700;50.930;5.168;2023-02-28T23:49:58;10.68;;;4.55;;
36575;SDS011;45700;50.930;5.168;2023-02-28T23:53:59;12.02;;;4.82;;
36575;SDS011;45700;50.930;5.168;2023-02-28T23:58:02;8.10;;;4.57;;
